sensor_id;sensor_type;location;lat;lon;timestamp;P1;durP1;ratioP1;P2;durP2;ratioP2
19560;SDS011;9927;47.792;10.616;2024-01-07T04:01:07;12.97;;;9.27;;
19560;SDS011;9927;47.792;10.616;2024-01-07T04:03:35;10.03;;;8.60;;
19560;SDS011;9927;47.792;10.616;2024-01-07T04:06:06;9.57;;;8.63;;
19560;SDS011;9927;47.792;10.616;2024-01-07T04:08:34;10.57;;;8.80;;
19560;SDS011;9927;47.792;10.616;2024-01-07T04:11:02;10.07;;;8.70;;
19560;SDS011;9927;47.792;10.616;2024-01-07T04:13:29;9.13;;;8.33;;
19560;SDS011;9927;47.792;10.616;2024-01-07T04:15:57;10.17;;;8.93;;
19560;SDS011;9927;47.792;10.616;2024-01-07T04:18:24;9.63;;;8.70;;
19560;SDS011;9927;47.792;10.616;2024-01-07T04:20:51;10.23;;;9.10;;
19560;SDS011;9927;47.792;10.616;2024-01-07T04:23:19;9.47;;;8.57;;
19560;SDS011;9927;47.792;10.616;2024-01-07T04:25:46;21.77;;;10.50;;
19560;SDS011;9927;47.792;10.616;2024-01-07T04:28:13;9.83;;;8.80;;
19560;SDS011;9927;47.792;10.616;2024-01-07T04:30:41;13.57;;;9.60;;
19560;SDS011;9927;47.792;10.616;2024-01-07T04:33:08;10.80;;;9.03;;
19560;SDS011;9927;47.792;10.616;2024-01-07T04:35:35;11.67;;;9.40;;
19560;SDS011;9927;47.792;10.616;2024-01-07T04:38:03;9.80;;;8.80;;
19560;SDS011;9927;47.792;10.616;2024-01-07T04:40:30;8.93;;;8.13;;
19560;SDS011;9927;47.792;10.616;2024-01-07T04:42:57;9.53;;;8.60;;
19560;SDS011;9927;47.792;10.616;2024-01-07T04:45:25;9.10;;;8.27;;
19560;SDS011;9927;47.792;10.616;2024-01-07T04:47:52;9.23;;;8.33;;
19560;SDS011;9927;47.792;10.616;2024-01-07T04:50:19;9.63;;;8.63;;
19560;SDS011;9927;47.792;10.616;2024-01-07T04:52:47;8.90;;;8.00;;
19560;SDS011;9927;47.792;10.616;2024-01-07T04:55:14;9.10;;;8.20;;
19560;SDS011;9927;47.792;10.616;2024-01-07T04:57:42;9.37;;;8.37;;
19560;SDS011;9927;47.792;10.616;2024-01-07T05:00:10;8.57;;;7.67;;
19560;SDS011;9927;47.792;10.616;2024-01-07T05:02:38;8.53;;;7.73;;
19560;SDS011;9927;47.792;10.616;2024-01-07T05:05:07;8.10;;;7.40;;
19560;SDS011;9927;47.792;10.616;2024-01-07T05:07:35;8.27;;;7.57;;
19560;SDS011;9927;47.792;10.616;2024-01-07T05:10:04;8.23;;;7.43;;
19560;SDS011;9927;47.792;10.616;2024-01-07T05:12:31;8.07;;;7.47;;
19560;SDS011;9927;47.792;10.616;2024-01-07T05:14:59;8.00;;;7.30;;
19560;SDS011;9927;47.792;10.616;2024-01-07T05:17:26;7.30;;;6.80;;
19560;SDS011;9927;47.792;10.616;2024-01-07T05:19:55;8.40;;;7.57;;
19560;SDS011;9927;47.792;10.616;2024-01-07T05:22:22;7.83;;;7.10;;
19560;SDS011;9927;47.792;10.616;2024-01-07T05:24:50;7.80;;;7.20;;
19560;SDS011;9927;47.792;10.616;2024-01-07T05:27:17;7.63;;;7.00;;
19560;SDS011;9927;47.792;10.616;2024-01-07T05:29:45;7.53;;;6.93;;
19560;SDS011;9927;47.792;10.616;2024-01-07T05:32:16;8.07;;;7.27;;
19560;SDS011;9927;47.792;10.616;2024-01-07T05:34:43;7.90;;;7.20;;
19560;SDS011;9927;47.792;10.616;2024-01-07T05:37:10;7.83;;;7.13;;
19560;SDS011;9927;47.792;10.616;2024-01-07T05:39:38;7.67;;;7.07;;
19560;SDS011;9927;47.792;10.616;2024-01-07T05:42:05;7.93;;;7.23;;
19560;SDS011;9927;47.792;10.616;2024-01-07T05:44:32;8.33;;;7.53;;
19560;SDS011;9927;47.792;10.616;2024-01-07T05:46:59;7.57;;;7.00;;
19560;SDS011;9927;47.792;10.616;2024-01-07T05:49:27;7.97;;;7.17;;
19560;SDS011;9927;47.792;10.616;2024-01-07T05:51:54;8.10;;;7.40;;
19560;SDS011;9927;47.792;10.616;2024-01-07T05:54:21;9.20;;;7.13;;
19560;SDS011;9927;47.792;10.616;2024-01-07T05:56:49;7.97;;;7.20;;
19560;SDS011;9927;47.792;10.616;2024-01-07T05:59:16;8.33;;;7.63;;
19560;SDS011;9927;47.792;10.616;2024-01-07T06:01:43;9.70;;;8.60;;
19560;SDS011;9927;47.792;10.616;2024-01-07T06:04:11;8.93;;;8.13;;
19560;SDS011;9927;47.792;10.616;2024-01-07T06:06:38;8.63;;;7.83;;
19560;SDS011;9927;47.792;10.616;2024-01-07T06:09:06;8.43;;;7.63;;
19560;SDS011;9927;47.792;10.616;2024-01-07T06:11:34;9.10;;;8.20;;
19560;SDS011;9927;47.792;10.616;2024-01-07T06:14:01;12.20;;;9.10;;
19560;SDS011;9927;47.792;10.616;2024-01-07T06:16:28;8.83;;;8.03;;
19560;SDS011;9927;47.792;10.616;2024-01-07T06:18:55;9.27;;;8.37;;
19560;SDS011;9927;47.792;10.616;2024-01-07T06:21:23;8.93;;;8.13;;
19560;SDS011;9927;47.792;10.616;2024-01-07T06:23:50;8.90;;;8.10;;
19560;SDS011;9927;47.792;10.616;2024-01-07T06:26:17;10.30;;;9.13;;
19560;SDS011;9927;47.792;10.616;2024-01-07T06:28:45;9.37;;;8.57;;
19560;SDS011;9927;47.792;10.616;2024-01-07T06:31:12;10.73;;;9.63;;
19560;SDS011;9927;47.792;10.616;2024-01-07T06:33:39;10.60;;;9.50;;
19560;SDS011;9927;47.792;10.616;2024-01-07T06:36:07;9.60;;;8.70;;
19560;SDS011;9927;47.792;10.616;2024-01-07T06:38:35;10.00;;;9.00;;
19560;SDS011;9927;47.792;10.616;2024-01-07T06:41:02;10.47;;;9.37;;
19560;SDS011;9927;47.792;10.616;2024-01-07T06:43:31;9.97;;;9.00;;
19560;SDS011;9927;47.792;10.616;2024-01-07T06:45:59;10.10;;;9.10;;
19560;SDS011;9927;47.792;10.616;2024-01-07T06:48:26;9.70;;;8.80;;
19560;SDS011;9927;47.792;10.616;2024-01-07T06:50:54;12.00;;;9.50;;
19560;SDS011;9927;47.792;10.616;2024-01-07T06:53:21;10.43;;;9.23;;
19560;SDS011;9927;47.792;10.616;2024-01-07T06:55:48;9.53;;;8.60;;
19560;SDS011;9927;47.792;10.616;2024-01-07T06:58:16;10.40;;;9.40;;
19560;SDS011;9927;47.792;10.616;2024-01-07T07:00:43;10.37;;;9.40;;
19560;SDS011;9927;47.792;10.616;2024-01-07T07:03:10;10.43;;;9.33;;
19560;SDS011;9927;47.792;10.616;2024-01-07T07:05:38;10.17;;;8.90;;
19560;SDS011;9927;47.792;10.616;2024-01-07T07:08:05;10.33;;;9.33;;
19560;SDS011;9927;47.792;10.616;2024-01-07T07:10:33;10.43;;;9.33;;
19560;SDS011;9927;47.792;10.616;2024-01-07T07:13:00;10.57;;;9.40;;
19560;SDS011;9927;47.792;10.616;2024-01-07T07:15:27;9.60;;;8.63;;
19560;SDS011;9927;47.792;10.616;2024-01-07T07:17:55;9.53;;;8.73;;
19560;SDS011;9927;47.792;10.616;2024-01-07T07:20:24;10.23;;;9.13;;
19560;SDS011;9927;47.792;10.616;2024-01-07T07:22:51;10.60;;;9.50;;
19560;SDS011;9927;47.792;10.616;2024-01-07T07:25:18;10.87;;;9.33;;
19560;SDS011;9927;47.792;10.616;2024-01-07T07:27:45;11.13;;;9.07;;
19560;SDS011;9927;47.792;10.616;2024-01-07T07:30:13;11.53;;;9.57;;
19560;SDS011;9927;47.792;10.616;2024-01-07T07:32:41;10.10;;;9.03;;
19560;SDS011;9927;47.792;10.616;2024-01-07T07:35:08;9.90;;;8.90;;
19560;SDS011;9927;47.792;10.616;2024-01-07T07:37:37;12.80;;;9.80;;
19560;SDS011;9927;47.792;10.616;2024-01-07T07:40:05;9.97;;;8.97;;
19560;SDS011;9927;47.792;10.616;2024-01-07T07:42:32;9.97;;;9.00;;
19560;SDS011;9927;47.792;10.616;2024-01-07T07:45:00;8.80;;;8.10;;
19560;SDS011;9927;47.792;10.616;2024-01-07T07:47:28;9.53;;;8.63;;
19560;SDS011;9927;47.792;10.616;2024-01-07T07:49:56;9.20;;;8.30;;
19560;SDS011;9927;47.792;10.616;2024-01-07T07:52:24;9.77;;;8.87;;
19560;SDS011;9927;47.792;10.616;2024-01-07T07:54:52;9.70;;;8.80;;
19560;SDS011;9927;47.792;10.616;2024-01-07T07:57:20;10.03;;;9.03;;
19560;SDS011;9927;47.792;10.616;2024-01-07T07:59:48;10.20;;;9.20;;
19560;SDS011;9927;47.792;10.616;2024-01-07T08:02:16;10.60;;;9.50;;
19560;SDS011;9927;47.792;10.616;2024-01-07T08:04:43;9.40;;;8.50;;
19560;SDS011;9927;47.792;10.616;2024-01-07T08:07:11;10.60;;;9.40;;
19560;SDS011;9927;47.792;10.616;2024-01-07T08:09:38;10.63;;;9.50;;
19560;SDS011;9927;47.792;10.616;2024-01-07T08:12:05;9.60;;;8.70;;
19560;SDS011;9927;47.792;10.616;2024-01-07T08:14:33;11.50;;;10.40;;
19560;SDS011;9927;47.792;10.616;2024-01-07T08:17:00;11.07;;;9.87;;
19560;SDS011;9927;47.792;10.616;2024-01-07T08:19:28;11.20;;;10.00;;
19560;SDS011;9927;47.792;10.616;2024-01-07T08:21:55;10.63;;;9.63;;
19560;SDS011;9927;47.792;10.616;2024-01-07T08:24:23;9.50;;;8.67;;
19560;SDS011;9927;47.792;10.616;2024-01-07T08:26:50;10.57;;;9.57;;
19560;SDS011;9927;47.792;10.616;2024-01-07T08:29:18;10.43;;;9.43;;
19560;SDS011;9927;47.792;10.616;2024-01-07T08:31:45;9.70;;;8.77;;
19560;SDS011;9927;47.792;10.616;2024-01-07T08:34:13;11.70;;;10.50;;
19560;SDS011;9927;47.792;10.616;2024-01-07T08:36:42;10.10;;;9.27;;
19560;SDS011;9927;47.792;10.616;2024-01-07T08:39:09;11.53;;;10.33;;
19560;SDS011;9927;47.792;10.616;2024-01-07T08:41:37;10.97;;;9.93;;
19560;SDS011;9927;47.792;10.616;2024-01-07T08:44:05;11.40;;;10.27;;
19560;SDS011;9927;47.792;10.616;2024-01-07T08:46:33;12.77;;;11.20;;
19560;SDS011;9927;47.792;10.616;2024-01-07T08:49:03;11.70;;;10.50;;
19560;SDS011;9927;47.792;10.616;2024-01-07T08:51:31;13.03;;;10.93;;
19560;SDS011;9927;47.792;10.616;2024-01-07T08:53:58;10.97;;;9.87;;
19560;SDS011;9927;47.792;10.616;2024-01-07T08:56:26;11.57;;;10.37;;
19560;SDS011;9927;47.792;10.616;2024-01-07T08:58:53;11.77;;;10.57;;
19560;SDS011;9927;47.792;10.616;2024-01-07T09:01:20;13.57;;;11.87;;
19560;SDS011;9927;47.792;10.616;2024-01-07T09:03:47;13.10;;;11.40;;
19560;SDS011;9927;47.792;10.616;2024-01-07T09:06:15;13.70;;;12.20;;
19560;SDS011;9927;47.792;10.616;2024-01-07T09:08:42;15.10;;;12.93;;
19560;SDS011;9927;47.792;10.616;2024-01-07T09:11:10;14.33;;;12.60;;
19560;SDS011;9927;47.792;10.616;2024-01-07T09:13:39;17.50;;;13.90;;
19560;SDS011;9927;47.792;10.616;2024-01-07T09:16:10;15.03;;;13.23;;
19560;SDS011;9927;47.792;10.616;2024-01-07T09:18:39;13.63;;;12.23;;
19560;SDS011;9927;47.792;10.616;2024-01-07T09:21:06;16.57;;;14.00;;
19560;SDS011;9927;47.792;10.616;2024-01-07T09:23:34;16.70;;;14.37;;
19560;SDS011;9927;47.792;10.616;2024-01-07T09:26:02;17.73;;;13.87;;
19560;SDS011;9927;47.792;10.616;2024-01-07T09:28:30;18.77;;;14.50;;
19560;SDS011;9927;47.792;10.616;2024-01-07T09:30:57;15.77;;;13.53;;
19560;SDS011;9927;47.792;10.616;2024-01-07T09:33:24;14.37;;;12.67;;
19560;SDS011;9927;47.792;10.616;2024-01-07T09:35:52;15.77;;;13.47;;
19560;SDS011;9927;47.792;10.616;2024-01-07T09:38:28;14.47;;;12.97;;
19560;SDS011;9927;47.792;10.616;2024-01-07T09:40:55;20.77;;;14.77;;
19560;SDS011;9927;47.792;10.616;2024-01-07T09:43:22;15.03;;;12.97;;
19560;SDS011;9927;47.792;10.616;2024-01-07T09:45:54;18.10;;;15.37;;
19560;SDS011;9927;47.792;10.616;2024-01-07T09:48:24;16.43;;;14.07;;
19560;SDS011;9927;47.792;10.616;2024-01-07T09:50:52;16.30;;;14.13;;
19560;SDS011;9927;47.792;10.616;2024-01-07T09:53:20;18.43;;;15.10;;
19560;SDS011;9927;47.792;10.616;2024-01-07T09:56:04;16.47;;;13.93;;
19560;SDS011;9927;47.792;10.616;2024-01-07T09:58:46;14.87;;;12.77;;
19560;SDS011;9927;47.792;10.616;2024-01-07T10:01:17;16.20;;;13.60;;
19560;SDS011;9927;47.792;10.616;2024-01-07T10:03:45;15.53;;;13.37;;
19560;SDS011;9927;47.792;10.616;2024-01-07T10:06:13;15.13;;;13.37;;
19560;SDS011;9927;47.792;10.616;2024-01-07T10:08:44;17.50;;;14.27;;
19560;SDS011;9927;47.792;10.616;2024-01-07T10:11:13;16.53;;;14.10;;
19560;SDS011;9927;47.792;10.616;2024-01-07T10:13:41;13.87;;;12.43;;
19560;SDS011;9927;47.792;10.616;2024-01-07T10:16:08;11.50;;;10.40;;
19560;SDS011;9927;47.792;10.616;2024-01-07T10:18:36;11.57;;;10.47;;
19560;SDS011;9927;47.792;10.616;2024-01-07T10:21:05;11.23;;;10.23;;
19560;SDS011;9927;47.792;10.616;2024-01-07T10:23:33;11.77;;;10.60;;
19560;SDS011;9927;47.792;10.616;2024-01-07T10:26:00;11.43;;;10.33;;
19560;SDS011;9927;47.792;10.616;2024-01-07T10:28:41;12.73;;;11.43;;
19560;SDS011;9927;47.792;10.616;2024-01-07T10:31:10;12.10;;;10.90;;
19560;SDS011;9927;47.792;10.616;2024-01-07T10:33:38;13.67;;;12.20;;
19560;SDS011;9927;47.792;10.616;2024-01-07T10:36:07;12.60;;;11.40;;
19560;SDS011;9927;47.792;10.616;2024-01-07T10:38:36;13.40;;;11.93;;
19560;SDS011;9927;47.792;10.616;2024-01-07T10:41:07;14.90;;;13.23;;
19560;SDS011;9927;47.792;10.616;2024-01-07T10:43:36;13.27;;;11.93;;
19560;SDS011;9927;47.792;10.616;2024-01-07T10:46:05;13.33;;;11.93;;
19560;SDS011;9927;47.792;10.616;2024-01-07T10:48:37;15.00;;;13.03;;
19560;SDS011;9927;47.792;10.616;2024-01-07T10:51:05;13.50;;;12.20;;
19560;SDS011;9927;47.792;10.616;2024-01-07T10:53:34;13.03;;;11.87;;
19560;SDS011;9927;47.792;10.616;2024-01-07T10:56:07;15.07;;;13.37;;
19560;SDS011;9927;47.792;10.616;2024-01-07T10:58:38;16.07;;;13.60;;
19560;SDS011;9927;47.792;10.616;2024-01-07T11:01:06;15.90;;;13.77;;
19560;SDS011;9927;47.792;10.616;2024-01-07T11:03:51;15.00;;;13.40;;
19560;SDS011;9927;47.792;10.616;2024-01-07T11:06:42;16.73;;;13.80;;
19560;SDS011;9927;47.792;10.616;2024-01-07T11:09:26;15.50;;;13.33;;
19560;SDS011;9927;47.792;10.616;2024-01-07T11:12:15;17.50;;;13.80;;
19560;SDS011;9927;47.792;10.616;2024-01-07T11:14:43;14.80;;;12.57;;
19560;SDS011;9927;47.792;10.616;2024-01-07T11:19:59;16.90;;;13.93;;
19560;SDS011;9927;47.792;10.616;2024-01-07T11:22:27;15.40;;;13.70;;
19560;SDS011;9927;47.792;10.616;2024-01-07T11:24:59;17.27;;;13.93;;
19560;SDS011;9927;47.792;10.616;2024-01-07T11:27:30;17.03;;;14.00;;
19560;SDS011;9927;47.792;10.616;2024-01-07T11:30:02;16.47;;;13.87;;
19560;SDS011;9927;47.792;10.616;2024-01-07T11:32:33;17.53;;;14.13;;
19560;SDS011;9927;47.792;10.616;2024-01-07T11:35:02;20.07;;;14.57;;
19560;SDS011;9927;47.792;10.616;2024-01-07T11:37:30;17.23;;;14.30;;
19560;SDS011;9927;47.792;10.616;2024-01-07T11:39:57;18.17;;;14.33;;
19560;SDS011;9927;47.792;10.616;2024-01-07T11:42:25;17.27;;;14.23;;
19560;SDS011;9927;47.792;10.616;2024-01-07T11:44:53;17.27;;;14.53;;
19560;SDS011;9927;47.792;10.616;2024-01-07T11:47:22;18.53;;;14.90;;
19560;SDS011;9927;47.792;10.616;2024-01-07T11:49:50;17.40;;;14.13;;
19560;SDS011;9927;47.792;10.616;2024-01-07T11:52:18;17.47;;;13.90;;
19560;SDS011;9927;47.792;10.616;2024-01-07T11:54:47;18.83;;;15.03;;
19560;SDS011;9927;47.792;10.616;2024-01-07T11:57:15;21.00;;;14.70;;
19560;SDS011;9927;47.792;10.616;2024-01-07T11:59:42;17.90;;;14.57;;
19560;SDS011;9927;47.792;10.616;2024-01-07T12:02:11;18.73;;;14.90;;
19560;SDS011;9927;47.792;10.616;2024-01-07T12:04:38;18.27;;;14.80;;
19560;SDS011;9927;47.792;10.616;2024-01-07T12:07:06;20.17;;;15.37;;
19560;SDS011;9927;47.792;10.616;2024-01-07T12:09:33;21.60;;;15.93;;
19560;SDS011;9927;47.792;10.616;2024-01-07T12:12:01;18.60;;;15.53;;
19560;SDS011;9927;47.792;10.616;2024-01-07T12:14:30;21.53;;;16.20;;
19560;SDS011;9927;47.792;10.616;2024-01-07T12:16:58;15.17;;;13.57;;
19560;SDS011;9927;47.792;10.616;2024-01-07T12:19:26;20.63;;;16.00;;
19560;SDS011;9927;47.792;10.616;2024-01-07T12:22:02;20.30;;;15.33;;
19560;SDS011;9927;47.792;10.616;2024-01-07T12:24:30;19.10;;;15.10;;
19560;SDS011;9927;47.792;10.616;2024-01-07T12:27:03;18.97;;;14.53;;
19560;SDS011;9927;47.792;10.616;2024-01-07T12:29:33;18.70;;;15.03;;
19560;SDS011;9927;47.792;10.616;2024-01-07T12:32:01;20.70;;;15.60;;
19560;SDS011;9927;47.792;10.616;2024-01-07T12:34:30;19.53;;;14.57;;
19560;SDS011;9927;47.792;10.616;2024-01-07T12:36:58;16.93;;;14.30;;
19560;SDS011;9927;47.792;10.616;2024-01-07T12:39:26;20.10;;;14.57;;
19560;SDS011;9927;47.792;10.616;2024-01-07T12:41:54;17.37;;;14.10;;
19560;SDS011;9927;47.792;10.616;2024-01-07T12:44:26;18.30;;;14.07;;
19560;SDS011;9927;47.792;10.616;2024-01-07T12:46:54;18.40;;;14.73;;
19560;SDS011;9927;47.792;10.616;2024-01-07T12:49:21;17.27;;;13.63;;
19560;SDS011;9927;47.792;10.616;2024-01-07T12:51:50;16.70;;;14.03;;
19560;SDS011;9927;47.792;10.616;2024-01-07T12:54:17;18.30;;;14.70;;
19560;SDS011;9927;47.792;10.616;2024-01-07T12:56:46;16.23;;;13.27;;
19560;SDS011;9927;47.792;10.616;2024-01-07T12:59:13;16.00;;;13.70;;
19560;SDS011;9927;47.792;10.616;2024-01-07T13:01:40;16.87;;;13.77;;
19560;SDS011;9927;47.792;10.616;2024-01-07T13:04:08;15.93;;;13.17;;
19560;SDS011;9927;47.792;10.616;2024-01-07T13:06:36;17.13;;;13.47;;
19560;SDS011;9927;47.792;10.616;2024-01-07T13:09:04;14.10;;;12.57;;
19560;SDS011;9927;47.792;10.616;2024-01-07T13:11:32;18.27;;;14.40;;
19560;SDS011;9927;47.792;10.616;2024-01-07T13:13:59;17.90;;;13.60;;
19560;SDS011;9927;47.792;10.616;2024-01-07T13:16:29;18.10;;;14.00;;
19560;SDS011;9927;47.792;10.616;2024-01-07T13:18:56;16.27;;;13.27;;
19560;SDS011;9927;47.792;10.616;2024-01-07T13:21:24;17.07;;;13.77;;
19560;SDS011;9927;47.792;10.616;2024-01-07T13:23:51;14.80;;;12.90;;
19560;SDS011;9927;47.792;10.616;2024-01-07T13:26:18;13.37;;;11.93;;
19560;SDS011;9927;47.792;10.616;2024-01-07T13:28:47;16.80;;;12.13;;
19560;SDS011;9927;47.792;10.616;2024-01-07T13:31:14;15.67;;;12.93;;
19560;SDS011;9927;47.792;10.616;2024-01-07T13:33:42;15.67;;;13.40;;
19560;SDS011;9927;47.792;10.616;2024-01-07T13:36:10;14.57;;;12.90;;
19560;SDS011;9927;47.792;10.616;2024-01-07T13:38:39;18.53;;;14.07;;
19560;SDS011;9927;47.792;10.616;2024-01-07T13:41:10;16.90;;;13.70;;
19560;SDS011;9927;47.792;10.616;2024-01-07T13:43:37;17.63;;;14.67;;
19560;SDS011;9927;47.792;10.616;2024-01-07T13:46:07;15.83;;;13.67;;
19560;SDS011;9927;47.792;10.616;2024-01-07T13:48:35;14.30;;;12.60;;
19560;SDS011;9927;47.792;10.616;2024-01-07T13:51:06;17.70;;;14.23;;
19560;SDS011;9927;47.792;10.616;2024-01-07T13:53:33;15.80;;;13.43;;
19560;SDS011;9927;47.792;10.616;2024-01-07T13:56:01;14.93;;;12.83;;
19560;SDS011;9927;47.792;10.616;2024-01-07T13:58:29;15.10;;;12.53;;
19560;SDS011;9927;47.792;10.616;2024-01-07T14:00:56;17.57;;;14.13;;
19560;SDS011;9927;47.792;10.616;2024-01-07T14:03:23;13.93;;;12.43;;
19560;SDS011;9927;47.792;10.616;2024-01-07T14:05:51;14.70;;;11.80;;
19560;SDS011;9927;47.792;10.616;2024-01-07T14:08:20;14.37;;;12.33;;
19560;SDS011;9927;47.792;10.616;2024-01-07T14:10:47;13.57;;;11.93;;
19560;SDS011;9927;47.792;10.616;2024-01-07T14:13:15;15.93;;;13.17;;
19560;SDS011;9927;47.792;10.616;2024-01-07T14:15:42;15.03;;;13.37;;
19560;SDS011;9927;47.792;10.616;2024-01-07T14:18:10;17.03;;;13.33;;
19560;SDS011;9927;47.792;10.616;2024-01-07T14:20:42;13.80;;;12.30;;
19560;SDS011;9927;47.792;10.616;2024-01-07T14:23:10;16.77;;;14.53;;
19560;SDS011;9927;47.792;10.616;2024-01-07T14:25:37;16.23;;;13.70;;
19560;SDS011;9927;47.792;10.616;2024-01-07T14:28:04;18.47;;;14.87;;
19560;SDS011;9927;47.792;10.616;2024-01-07T14:30:32;19.60;;;15.00;;
19560;SDS011;9927;47.792;10.616;2024-01-07T14:33:00;18.77;;;15.10;;
19560;SDS011;9927;47.792;10.616;2024-01-07T14:35:27;17.13;;;14.23;;
19560;SDS011;9927;47.792;10.616;2024-01-07T14:37:58;17.07;;;14.47;;
19560;SDS011;9927;47.792;10.616;2024-01-07T14:40:26;19.40;;;14.63;;
19560;SDS011;9927;47.792;10.616;2024-01-07T14:42:54;16.80;;;14.00;;
19560;SDS011;9927;47.792;10.616;2024-01-07T14:45:24;17.20;;;14.43;;
19560;SDS011;9927;47.792;10.616;2024-01-07T14:47:53;15.90;;;13.10;;
19560;SDS011;9927;47.792;10.616;2024-01-07T14:50:21;18.20;;;13.57;;
19560;SDS011;9927;47.792;10.616;2024-01-07T14:52:55;16.30;;;13.80;;
19560;SDS011;9927;47.792;10.616;2024-01-07T14:55:22;16.57;;;14.00;;
19560;SDS011;9927;47.792;10.616;2024-01-07T14:57:50;16.73;;;14.10;;
19560;SDS011;9927;47.792;10.616;2024-01-07T15:00:18;18.30;;;14.30;;
19560;SDS011;9927;47.792;10.616;2024-01-07T15:02:45;15.00;;;13.40;;
19560;SDS011;9927;47.792;10.616;2024-01-07T15:05:12;15.80;;;13.10;;
19560;SDS011;9927;47.792;10.616;2024-01-07T15:07:40;16.93;;;13.87;;
19560;SDS011;9927;47.792;10.616;2024-01-07T15:10:07;15.63;;;13.33;;
19560;SDS011;9927;47.792;10.616;2024-01-07T15:12:35;15.90;;;13.57;;
19560;SDS011;9927;47.792;10.616;2024-01-07T15:15:07;17.17;;;13.53;;
19560;SDS011;9927;47.792;10.616;2024-01-07T15:17:35;17.10;;;14.47;;
19560;SDS011;9927;47.792;10.616;2024-01-07T15:20:03;16.50;;;13.73;;
19560;SDS011;9927;47.792;10.616;2024-01-07T15:22:30;19.87;;;15.50;;
19560;SDS011;9927;47.792;10.616;2024-01-07T15:24:58;16.83;;;14.43;;
19560;SDS011;9927;47.792;10.616;2024-01-07T15:27:25;19.27;;;14.97;;
19560;SDS011;9927;47.792;10.616;2024-01-07T15:29:52;16.40;;;14.60;;
19560;SDS011;9927;47.792;10.616;2024-01-07T15:32:21;17.73;;;14.93;;
19560;SDS011;9927;47.792;10.616;2024-01-07T15:34:48;17.67;;;14.73;;
19560;SDS011;9927;47.792;10.616;2024-01-07T15:37:15;17.93;;;15.23;;
19560;SDS011;9927;47.792;10.616;2024-01-07T15:39:43;15.43;;;13.77;;
19560;SDS011;9927;47.792;10.616;2024-01-07T15:42:11;18.17;;;15.17;;
19560;SDS011;9927;47.792;10.616;2024-01-07T15:44:38;16.23;;;13.73;;
19560;SDS011;9927;47.792;10.616;2024-01-07T15:47:06;15.43;;;13.43;;
19560;SDS011;9927;47.792;10.616;2024-01-07T15:49:33;13.90;;;12.30;;
19560;SDS011;9927;47.792;10.616;2024-01-07T15:52:01;13.27;;;11.90;;
19560;SDS011;9927;47.792;10.616;2024-01-07T15:54:28;14.03;;;12.67;;
19560;SDS011;9927;47.792;10.616;2024-01-07T15:56:58;14.20;;;12.70;;
19560;SDS011;9927;47.792;10.616;2024-01-07T15:59:26;13.30;;;12.00;;
19560;SDS011;9927;47.792;10.616;2024-01-07T16:01:54;13.37;;;12.07;;
19560;SDS011;9927;47.792;10.616;2024-01-07T16:04:22;15.13;;;13.53;;
19560;SDS011;9927;47.792;10.616;2024-01-07T16:06:50;14.30;;;12.90;;
19560;SDS011;9927;47.792;10.616;2024-01-07T16:09:18;15.80;;;13.10;;
19560;SDS011;9927;47.792;10.616;2024-01-07T16:11:45;16.47;;;14.70;;
19560;SDS011;9927;47.792;10.616;2024-01-07T16:14:12;14.50;;;13.10;;
19560;SDS011;9927;47.792;10.616;2024-01-07T16:16:40;13.77;;;12.33;;
19560;SDS011;9927;47.792;10.616;2024-01-07T16:19:08;14.50;;;12.53;;
19560;SDS011;9927;47.792;10.616;2024-01-07T16:21:39;13.43;;;12.07;;
19560;SDS011;9927;47.792;10.616;2024-01-07T16:24:07;13.90;;;12.57;;
19560;SDS011;9927;47.792;10.616;2024-01-07T16:26:34;13.93;;;12.47;;
19560;SDS011;9927;47.792;10.616;2024-01-07T16:29:01;14.13;;;12.83;;
19560;SDS011;9927;47.792;10.616;2024-01-07T16:31:28;13.50;;;12.10;;
19560;SDS011;9927;47.792;10.616;2024-01-07T16:33:57;14.83;;;13.30;;
19560;SDS011;9927;47.792;10.616;2024-01-07T16:36:25;13.77;;;12.37;;
19560;SDS011;9927;47.792;10.616;2024-01-07T16:38:53;13.93;;;12.63;;
19560;SDS011;9927;47.792;10.616;2024-01-07T16:41:22;14.37;;;12.87;;
19560;SDS011;9927;47.792;10.616;2024-01-07T16:43:49;15.50;;;13.90;;
19560;SDS011;9927;47.792;10.616;2024-01-07T16:46:17;17.80;;;12.70;;
19560;SDS011;9927;47.792;10.616;2024-01-07T16:48:44;15.53;;;13.80;;
19560;SDS011;9927;47.792;10.616;2024-01-07T16:51:15;16.20;;;14.10;;
19560;SDS011;9927;47.792;10.616;2024-01-07T16:53:42;15.53;;;13.83;;
19560;SDS011;9927;47.792;10.616;2024-01-07T16:56:09;15.17;;;13.67;;
19560;SDS011;9927;47.792;10.616;2024-01-07T16:58:39;14.93;;;13.47;;
19560;SDS011;9927;47.792;10.616;2024-01-07T17:01:06;16.00;;;13.80;;
19560;SDS011;9927;47.792;10.616;2024-01-07T17:03:34;14.83;;;13.23;;
19560;SDS011;9927;47.792;10.616;2024-01-07T17:06:01;14.60;;;13.10;;
19560;SDS011;9927;47.792;10.616;2024-01-07T17:08:30;14.87;;;13.27;;
19560;SDS011;9927;47.792;10.616;2024-01-07T17:10:57;15.73;;;13.90;;
19560;SDS011;9927;47.792;10.616;2024-01-07T17:13:24;16.93;;;14.73;;
19560;SDS011;9927;47.792;10.616;2024-01-07T17:15:51;14.80;;;13.30;;
19560;SDS011;9927;47.792;10.616;2024-01-07T17:18:20;15.30;;;13.70;;
19560;SDS011;9927;47.792;10.616;2024-01-07T17:20:47;15.60;;;14.07;;
19560;SDS011;9927;47.792;10.616;2024-01-07T17:23:14;15.43;;;13.70;;
19560;SDS011;9927;47.792;10.616;2024-01-07T17:25:48;14.43;;;13.03;;
19560;SDS011;9927;47.792;10.616;2024-01-07T17:28:15;15.73;;;13.43;;
19560;SDS011;9927;47.792;10.616;2024-01-07T17:30:43;14.63;;;13.13;;
19560;SDS011;9927;47.792;10.616;2024-01-07T17:33:10;14.13;;;12.63;;
19560;SDS011;9927;47.792;10.616;2024-01-07T17:35:38;14.43;;;12.87;;
19560;SDS011;9927;47.792;10.616;2024-01-07T17:38:06;13.63;;;12.33;;
19560;SDS011;9927;47.792;10.616;2024-01-07T17:40:33;13.73;;;12.43;;
19560;SDS011;9927;47.792;10.616;2024-01-07T17:43:00;15.43;;;13.77;;
19560;SDS011;9927;47.792;10.616;2024-01-07T17:45:29;14.90;;;13.30;;
19560;SDS011;9927;47.792;10.616;2024-01-07T17:47:56;15.17;;;13.57;;
19560;SDS011;9927;47.792;10.616;2024-01-07T17:50:23;15.00;;;13.43;;
19560;SDS011;9927;47.792;10.616;2024-01-07T17:52:51;14.77;;;13.30;;
19560;SDS011;9927;47.792;10.616;2024-01-07T17:55:18;15.43;;;13.77;;
19560;SDS011;9927;47.792;10.616;2024-01-07T17:57:46;15.33;;;13.73;;
19560;SDS011;9927;47.792;10.616;2024-01-07T18:00:13;15.23;;;13.33;;
19560;SDS011;9927;47.792;10.616;2024-01-07T18:02:41;15.70;;;13.87;;
19560;SDS011;9927;47.792;10.616;2024-01-07T18:05:09;14.07;;;12.53;;
19560;SDS011;9927;47.792;10.616;2024-01-07T18:07:36;14.73;;;13.13;;
19560;SDS011;9927;47.792;10.616;2024-01-07T18:10:04;15.30;;;13.70;;
19560;SDS011;9927;47.792;10.616;2024-01-07T18:12:37;15.97;;;14.27;;
19560;SDS011;9927;47.792;10.616;2024-01-07T18:15:04;16.47;;;14.50;;
19560;SDS011;9927;47.792;10.616;2024-01-07T18:17:32;16.40;;;14.57;;
19560;SDS011;9927;47.792;10.616;2024-01-07T18:20:00;16.00;;;14.30;;
19560;SDS011;9927;47.792;10.616;2024-01-07T18:22:27;16.10;;;14.37;;
19560;SDS011;9927;47.792;10.616;2024-01-07T18:24:54;17.30;;;15.07;;
19560;SDS011;9927;47.792;10.616;2024-01-07T18:27:22;16.73;;;15.00;;
19560;SDS011;9927;47.792;10.616;2024-01-07T18:29:49;16.80;;;14.60;;
19560;SDS011;9927;47.792;10.616;2024-01-07T18:32:16;17.40;;;13.93;;
19560;SDS011;9927;47.792;10.616;2024-01-07T18:34:43;16.80;;;14.80;;
19560;SDS011;9927;47.792;10.616;2024-01-07T18:37:11;17.43;;;14.57;;